sensor_id;sensor_type;location;lat;lon;timestamp;P1;durP1;ratioP1;P2;durP2;ratioP2
57810;SDS011;43640;47.550;7.590;2022-08-19T00:00:39;3.58;;;3.17;;
57810;SDS011;43640;47.550;7.590;2022-08-19T00:02:41;4.22;;;3.53;;
57810;SDS011;43640;47.550;7.590;2022-08-19T00:04:50;5.82;;;3.55;;
57810;SDS011;43640;47.550;7.590;2022-08-19T00:06:54;4.05;;;3.65;;
57810;SDS011;43640;47.550;7.590;2022-08-19T00:08:56;5.45;;;3.85;;
57810;SDS011;43640;47.550;7.590;2022-08-19T00:10:57;4.18;;;3.30;;
57810;SDS011;43640;47.550;7.590;2022-08-19T00:12:59;3.50;;;3.13;;
57810;SDS011;43640;47.550;7.590;2022-08-19T00:15:00;5.68;;;3.97;;
57810;SDS011;43640;47.550;7.590;2022-08-19T00:17:02;3.25;;;2.90;;
57810;SDS011;43640;47.550;7.590;2022-08-19T00:19:04;4.80;;;3.97;;
57810;SDS011;43640;47.550;7.590;2022-08-19T00:21:05;5.57;;;4.13;;
57810;SDS011;43640;47.550;7.590;2022-08-19T00:23:09;4.63;;;3.55;;
57810;SDS011;43640;47.550;7.590;2022-08-19T00:25:11;5.72;;;3.88;;
57810;SDS011;43640;47.550;7.590;2022-08-19T00:27:15;4.32;;;3.40;;
57810;SDS011;43640;47.550;7.590;2022-08-19T00:29:27;5.38;;;4.30;;
57810;SDS011;43640;47.550;7.590;2022-08-19T00:31:28;3.75;;;3.45;;
57810;SDS011;43640;47.550;7.590;2022-08-19T00:33:30;4.15;;;3.72;;
57810;SDS011;43640;47.550;7.590;2022-08-19T00:35:33;4.15;;;3.75;;
57810;SDS011;43640;47.550;7.590;2022-08-19T00:37:35;3.70;;;3.40;;
57810;SDS011;43640;47.550;7.590;2022-08-19T00:39:36;3.88;;;3.40;;
57810;SDS011;43640;47.550;7.590;2022-08-19T00:41:39;4.88;;;3.50;;
57810;SDS011;43640;47.550;7.590;2022-08-19T00:43:40;3.45;;;3.03;;
57810;SDS011;43640;47.550;7.590;2022-08-19T00:45:42;3.88;;;2.90;;
57810;SDS011;43640;47.550;7.590;2022-08-19T00:47:44;12.15;;;3.20;;
57810;SDS011;43640;47.550;7.590;2022-08-19T00:49:48;3.90;;;2.70;;
57810;SDS011;43640;47.550;7.590;2022-08-19T00:51:57;3.50;;;3.20;;
57810;SDS011;43640;47.550;7.590;2022-08-19T00:54:01;3.88;;;2.85;;
57810;SDS011;43640;47.550;7.590;2022-08-19T00:56:02;3.13;;;2.72;;
57810;SDS011;43640;47.550;7.590;2022-08-19T00:58:08;4.60;;;2.80;;
57810;SDS011;43640;47.550;7.590;2022-08-19T01:00:11;4.95;;;2.80;;
57810;SDS011;43640;47.550;7.590;2022-08-19T01:02:15;3.15;;;2.65;;
57810;SDS011;43640;47.550;7.590;2022-08-19T01:04:16;3.30;;;2.70;;
57810;SDS011;43640;47.550;7.590;2022-08-19T01:06:17;3.20;;;2.47;;
57810;SDS011;43640;47.550;7.590;2022-08-19T01:08:21;3.45;;;2.50;;
57810;SDS011;43640;47.550;7.590;2022-08-19T01:10:24;3.05;;;2.53;;
57810;SDS011;43640;47.550;7.590;2022-08-19T01:12:26;2.55;;;2.30;;
57810;SDS011;43640;47.550;7.590;2022-08-19T01:14:27;3.58;;;2.20;;
57810;SDS011;43640;47.550;7.590;2022-08-19T01:16:29;2.92;;;2.63;;
57810;SDS011;43640;47.550;7.590;2022-08-19T01:18:31;4.03;;;2.50;;
57810;SDS011;43640;47.550;7.590;2022-08-19T01:20:33;2.97;;;2.55;;
57810;SDS011;43640;47.550;7.590;2022-08-19T01:22:40;3.42;;;2.80;;
57810;SDS011;43640;47.550;7.590;2022-08-19T01:24:43;2.90;;;2.60;;
57810;SDS011;43640;47.550;7.590;2022-08-19T01:26:51;2.97;;;2.70;;
57810;SDS011;43640;47.550;7.590;2022-08-19T01:28:56;3.17;;;2.88;;
57810;SDS011;43640;47.550;7.590;2022-08-19T01:31:01;3.70;;;3.17;;
57810;SDS011;43640;47.550;7.590;2022-08-19T01:33:08;4.25;;;3.20;;
57810;SDS011;43640;47.550;7.590;2022-08-19T01:35:10;3.78;;;2.85;;
57810;SDS011;43640;47.550;7.590;2022-08-19T01:37:12;3.35;;;2.80;;
57810;SDS011;43640;47.550;7.590;2022-08-19T01:39:25;3.70;;;2.60;;
57810;SDS011;43640;47.550;7.590;2022-08-19T01:41:26;3.08;;;2.70;;
57810;SDS011;43640;47.550;7.590;2022-08-19T01:43:28;3.80;;;2.83;;
57810;SDS011;43640;47.550;7.590;2022-08-19T01:45:30;5.05;;;3.13;;
57810;SDS011;43640;47.550;7.590;2022-08-19T01:47:33;3.95;;;3.30;;
57810;SDS011;43640;47.550;7.590;2022-08-19T01:49:35;4.63;;;3.50;;
57810;SDS011;43640;47.550;7.590;2022-08-19T01:51:37;5.53;;;3.63;;
57810;SDS011;43640;47.550;7.590;2022-08-19T01:53:40;4.72;;;3.33;;
57810;SDS011;43640;47.550;7.590;2022-08-19T01:55:43;4.15;;;3.75;;
57810;SDS011;43640;47.550;7.590;2022-08-19T01:57:45;6.72;;;3.53;;
57810;SDS011;43640;47.550;7.590;2022-08-19T01:59:49;5.45;;;4.60;;
57810;SDS011;43640;47.550;7.590;2022-08-19T02:01:51;5.88;;;3.65;;
57810;SDS011;43640;47.550;7.590;2022-08-19T02:03:54;5.07;;;3.60;;
57810;SDS011;43640;47.550;7.590;2022-08-19T02:05:59;4.43;;;3.67;;
57810;SDS011;43640;47.550;7.590;2022-08-19T02:08:01;5.40;;;4.05;;
57810;SDS011;43640;47.550;7.590;2022-08-19T02:10:07;5.22;;;3.90;;
57810;SDS011;43640;47.550;7.590;2022-08-19T02:12:12;5.70;;;4.15;;
57810;SDS011;43640;47.550;7.590;2022-08-19T02:14:14;5.22;;;4.65;;
57810;SDS011;43640;47.550;7.590;2022-08-19T02:16:16;6.20;;;4.93;;
57810;SDS011;43640;47.550;7.590;2022-08-19T02:18:18;5.30;;;4.80;;
57810;SDS011;43640;47.550;7.590;2022-08-19T02:20:19;7.07;;;4.50;;
57810;SDS011;43640;47.550;7.590;2022-08-19T02:22:20;6.35;;;3.95;;
57810;SDS011;43640;47.550;7.590;2022-08-19T02:24:22;4.72;;;4.00;;
57810;SDS011;43640;47.550;7.590;2022-08-19T02:26:24;5.03;;;3.90;;
57810;SDS011;43640;47.550;7.590;2022-08-19T02:28:27;4.72;;;3.50;;
57810;SDS011;43640;47.550;7.590;2022-08-19T02:30:28;4.20;;;3.78;;
57810;SDS011;43640;47.550;7.590;2022-08-19T02:32:30;5.65;;;4.22;;
57810;SDS011;43640;47.550;7.590;2022-08-19T02:34:31;4.88;;;3.80;;
57810;SDS011;43640;47.550;7.590;2022-08-19T02:36:33;4.50;;;3.88;;
57810;SDS011;43640;47.550;7.590;2022-08-19T02:38:34;4.55;;;4.15;;
57810;SDS011;43640;47.550;7.590;2022-08-19T02:40:36;5.07;;;4.57;;
57810;SDS011;43640;47.550;7.590;2022-08-19T02:42:37;4.22;;;3.83;;
57810;SDS011;43640;47.550;7.590;2022-08-19T02:44:39;4.60;;;4.20;;
57810;SDS011;43640;47.550;7.590;2022-08-19T02:46:40;4.30;;;3.90;;
57810;SDS011;43640;47.550;7.590;2022-08-19T02:48:42;4.05;;;3.65;;
57810;SDS011;43640;47.550;7.590;2022-08-19T02:50:45;4.32;;;3.75;;
57810;SDS011;43640;47.550;7.590;2022-08-19T02:52:53;5.28;;;3.53;;
57810;SDS011;43640;47.550;7.590;2022-08-19T02:54:55;4.88;;;3.88;;
57810;SDS011;43640;47.550;7.590;2022-08-19T02:56:58;4.20;;;3.80;;
57810;SDS011;43640;47.550;7.590;2022-08-19T02:59:00;5.40;;;3.72;;
57810;SDS011;43640;47.550;7.590;2022-08-19T03:01:01;6.30;;;4.28;;
57810;SDS011;43640;47.550;7.590;2022-08-19T03:03:03;9.18;;;5.50;;
57810;SDS011;43640;47.550;7.590;2022-08-19T03:05:05;4.35;;;3.92;;
57810;SDS011;43640;47.550;7.590;2022-08-19T03:07:06;6.20;;;4.50;;
57810;SDS011;43640;47.550;7.590;2022-08-19T03:09:11;5.03;;;4.50;;
57810;SDS011;43640;47.550;7.590;2022-08-19T03:11:14;6.82;;;5.00;;
57810;SDS011;43640;47.550;7.590;2022-08-19T03:13:16;5.22;;;4.72;;
57810;SDS011;43640;47.550;7.590;2022-08-19T03:15:18;5.20;;;4.70;;
57810;SDS011;43640;47.550;7.590;2022-08-19T03:17:19;4.05;;;3.65;;
57810;SDS011;43640;47.550;7.590;2022-08-19T03:19:21;5.43;;;4.10;;
57810;SDS011;43640;47.550;7.590;2022-08-19T03:21:23;4.13;;;3.45;;
57810;SDS011;43640;47.550;7.590;2022-08-19T03:23:25;4.95;;;3.53;;
57810;SDS011;43640;47.550;7.590;2022-08-19T03:25:26;3.97;;;3.42;;
57810;SDS011;43640;47.550;7.590;2022-08-19T03:27:27;4.45;;;4.05;;
57810;SDS011;43640;47.550;7.590;2022-08-19T03:29:36;4.63;;;3.60;;
57810;SDS011;43640;47.550;7.590;2022-08-19T03:31:44;5.10;;;3.90;;
57810;SDS011;43640;47.550;7.590;2022-08-19T03:33:53;5.35;;;4.68;;
57810;SDS011;43640;47.550;7.590;2022-08-19T03:36:03;4.20;;;3.80;;
57810;SDS011;43640;47.550;7.590;2022-08-19T03:38:04;4.63;;;4.22;;
57810;SDS011;43640;47.550;7.590;2022-08-19T03:40:06;5.88;;;4.10;;
57810;SDS011;43640;47.550;7.590;2022-08-19T03:42:13;4.07;;;3.63;;
57810;SDS011;43640;47.550;7.590;2022-08-19T03:44:35;5.78;;;5.07;;
57810;SDS011;43640;47.550;7.590;2022-08-19T03:46:38;5.70;;;4.82;;
57810;SDS011;43640;47.550;7.590;2022-08-19T03:48:44;4.85;;;4.35;;
57810;SDS011;43640;47.550;7.590;2022-08-19T03:50:45;4.45;;;4.05;;
57810;SDS011;43640;47.550;7.590;2022-08-19T03:52:48;5.25;;;3.97;;
57810;SDS011;43640;47.550;7.590;2022-08-19T03:54:49;5.28;;;3.75;;
57810;SDS011;43640;47.550;7.590;2022-08-19T03:56:52;4.05;;;3.65;;
57810;SDS011;43640;47.550;7.590;2022-08-19T03:58:57;5.30;;;4.20;;
57810;SDS011;43640;47.550;7.590;2022-08-19T04:00:58;4.85;;;3.85;;
57810;SDS011;43640;47.550;7.590;2022-08-19T04:03:00;3.75;;;3.38;;
57810;SDS011;43640;47.550;7.590;2022-08-19T04:05:02;5.70;;;3.70;;
57810;SDS011;43640;47.550;7.590;2022-08-19T04:07:03;4.18;;;3.55;;
57810;SDS011;43640;47.550;7.590;2022-08-19T04:09:09;4.40;;;3.80;;
57810;SDS011;43640;47.550;7.590;2022-08-19T04:11:11;4.63;;;3.42;;
57810;SDS011;43640;47.550;7.590;2022-08-19T04:13:14;4.78;;;3.95;;
57810;SDS011;43640;47.550;7.590;2022-08-19T04:15:16;5.38;;;3.80;;
57810;SDS011;43640;47.550;7.590;2022-08-19T04:17:17;3.78;;;3.47;;
57810;SDS011;43640;47.550;7.590;2022-08-19T04:19:19;4.88;;;3.88;;
57810;SDS011;43640;47.550;7.590;2022-08-19T04:21:21;5.43;;;3.90;;
57810;SDS011;43640;47.550;7.590;2022-08-19T04:23:23;4.43;;;4.03;;
57810;SDS011;43640;47.550;7.590;2022-08-19T04:25:24;4.95;;;4.15;;
57810;SDS011;43640;47.550;7.590;2022-08-19T04:27:25;4.75;;;4.35;;
57810;SDS011;43640;47.550;7.590;2022-08-19T04:29:27;5.57;;;4.03;;
57810;SDS011;43640;47.550;7.590;2022-08-19T04:31:29;6.15;;;3.88;;
57810;SDS011;43640;47.550;7.590;2022-08-19T04:33:31;4.72;;;4.05;;
57810;SDS011;43640;47.550;7.590;2022-08-19T04:35:40;4.38;;;3.97;;
57810;SDS011;43640;47.550;7.590;2022-08-19T04:37:41;4.47;;;3.75;;
57810;SDS011;43640;47.550;7.590;2022-08-19T04:39:43;4.57;;;4.03;;
57810;SDS011;43640;47.550;7.590;2022-08-19T04:42:03;4.30;;;3.90;;
57810;SDS011;43640;47.550;7.590;2022-08-19T04:44:32;5.30;;;4.43;;
57810;SDS011;43640;47.550;7.590;2022-08-19T04:46:35;5.03;;;4.57;;
57810;SDS011;43640;47.550;7.590;2022-08-19T04:48:40;4.60;;;3.95;;
57810;SDS011;43640;47.550;7.590;2022-08-19T04:50:49;6.00;;;4.13;;
57810;SDS011;43640;47.550;7.590;2022-08-19T04:52:51;4.22;;;3.67;;
57810;SDS011;43640;47.550;7.590;2022-08-19T04:54:53;4.05;;;3.50;;
57810;SDS011;43640;47.550;7.590;2022-08-19T04:56:56;5.15;;;4.30;;
57810;SDS011;43640;47.550;7.590;2022-08-19T04:58:57;6.63;;;4.95;;
57810;SDS011;43640;47.550;7.590;2022-08-19T05:01:04;7.47;;;4.72;;
57810;SDS011;43640;47.550;7.590;2022-08-19T05:03:05;5.60;;;4.10;;
57810;SDS011;43640;47.550;7.590;2022-08-19T05:05:08;4.70;;;4.00;;
57810;SDS011;43640;47.550;7.590;2022-08-19T05:07:09;4.45;;;4.00;;
57810;SDS011;43640;47.550;7.590;2022-08-19T05:09:11;4.45;;;3.75;;
57810;SDS011;43640;47.550;7.590;2022-08-19T05:11:13;5.07;;;3.80;;
57810;SDS011;43640;47.550;7.590;2022-08-19T05:13:15;5.82;;;4.22;;
57810;SDS011;43640;47.550;7.590;2022-08-19T05:15:17;5.47;;;3.85;;
57810;SDS011;43640;47.550;7.590;2022-08-19T05:17:19;5.65;;;4.50;;
57810;SDS011;43640;47.550;7.590;2022-08-19T05:19:28;6.32;;;4.72;;
57810;SDS011;43640;47.550;7.590;2022-08-19T05:21:48;7.35;;;5.03;;
57810;SDS011;43640;47.550;7.590;2022-08-19T05:24:08;6.10;;;4.93;;
57810;SDS011;43640;47.550;7.590;2022-08-19T05:26:10;5.40;;;4.90;;
57810;SDS011;43640;47.550;7.590;2022-08-19T05:28:12;5.70;;;4.90;;
57810;SDS011;43640;47.550;7.590;2022-08-19T05:30:13;5.60;;;4.63;;
57810;SDS011;43640;47.550;7.590;2022-08-19T05:32:15;6.57;;;5.47;;
57810;SDS011;43640;47.550;7.590;2022-08-19T05:34:17;5.85;;;4.68;;
57810;SDS011;43640;47.550;7.590;2022-08-19T05:36:20;5.70;;;4.22;;
57810;SDS011;43640;47.550;7.590;2022-08-19T05:38:24;5.63;;;4.65;;
57810;SDS011;43640;47.550;7.590;2022-08-19T05:40:27;6.47;;;5.00;;
57810;SDS011;43640;47.550;7.590;2022-08-19T05:42:29;5.20;;;4.65;;
57810;SDS011;43640;47.550;7.590;2022-08-19T05:44:32;6.57;;;5.20;;
57810;SDS011;43640;47.550;7.590;2022-08-19T05:46:35;6.85;;;5.32;;
57810;SDS011;43640;47.550;7.590;2022-08-19T05:48:38;5.82;;;4.75;;
57810;SDS011;43640;47.550;7.590;2022-08-19T05:50:40;6.20;;;5.03;;
57810;SDS011;43640;47.550;7.590;2022-08-19T05:52:42;6.32;;;5.28;;
57810;SDS011;43640;47.550;7.590;2022-08-19T05:54:50;5.13;;;4.63;;
57810;SDS011;43640;47.550;7.590;2022-08-19T05:56:52;5.85;;;5.20;;
57810;SDS011;43640;47.550;7.590;2022-08-19T05:58:54;8.15;;;4.97;;
57810;SDS011;43640;47.550;7.590;2022-08-19T06:00:55;5.75;;;5.15;;
57810;SDS011;43640;47.550;7.590;2022-08-19T06:02:57;6.90;;;5.45;;
57810;SDS011;43640;47.550;7.590;2022-08-19T06:05:13;8.10;;;5.05;;
57810;SDS011;43640;47.550;7.590;2022-08-19T06:07:14;7.78;;;4.60;;
57810;SDS011;43640;47.550;7.590;2022-08-19T06:09:17;8.45;;;4.93;;
57810;SDS011;43640;47.550;7.590;2022-08-19T06:13:20;6.53;;;4.55;;
57810;SDS011;43640;47.550;7.590;2022-08-19T06:15:22;5.68;;;4.57;;
57810;SDS011;43640;47.550;7.590;2022-08-19T06:17:26;5.28;;;4.78;;
57810;SDS011;43640;47.550;7.590;2022-08-19T06:19:28;5.95;;;4.88;;
57810;SDS011;43640;47.550;7.590;2022-08-19T06:21:33;7.15;;;5.25;;
57810;SDS011;43640;47.550;7.590;2022-08-19T06:23:34;6.80;;;5.60;;
57810;SDS011;43640;47.550;7.590;2022-08-19T06:25:36;6.30;;;5.25;;
57810;SDS011;43640;47.550;7.590;2022-08-19T06:27:42;7.03;;;5.10;;
57810;SDS011;43640;47.550;7.590;2022-08-19T06:30:04;6.68;;;5.43;;
57810;SDS011;43640;47.550;7.590;2022-08-19T06:32:05;6.13;;;5.53;;
57810;SDS011;43640;47.550;7.590;2022-08-19T06:34:07;6.78;;;6.07;;
57810;SDS011;43640;47.550;7.590;2022-08-19T06:36:15;7.50;;;5.75;;
57810;SDS011;43640;47.550;7.590;2022-08-19T06:38:17;8.40;;;6.25;;
57810;SDS011;43640;47.550;7.590;2022-08-19T06:40:18;7.32;;;6.50;;
57810;SDS011;43640;47.550;7.590;2022-08-19T06:42:19;6.65;;;5.75;;
57810;SDS011;43640;47.550;7.590;2022-08-19T06:44:25;7.55;;;5.78;;
57810;SDS011;43640;47.550;7.590;2022-08-19T06:46:27;7.32;;;5.68;;
57810;SDS011;43640;47.550;7.590;2022-08-19T06:48:29;12.75;;;7.18;;
57810;SDS011;43640;47.550;7.590;2022-08-19T06:50:33;8.23;;;6.03;;
57810;SDS011;43640;47.550;7.590;2022-08-19T06:52:36;6.97;;;5.95;;
57810;SDS011;43640;47.550;7.590;2022-08-19T06:54:38;7.68;;;6.07;;
57810;SDS011;43640;47.550;7.590;2022-08-19T06:56:57;8.65;;;6.80;;
57810;SDS011;43640;47.550;7.590;2022-08-19T06:59:02;7.78;;;5.43;;
57810;SDS011;43640;47.550;7.590;2022-08-19T07:01:04;7.15;;;5.50;;
57810;SDS011;43640;47.550;7.590;2022-08-19T07:03:09;6.82;;;5.97;;
57810;SDS011;43640;47.550;7.590;2022-08-19T07:05:13;7.15;;;5.75;;
57810;SDS011;43640;47.550;7.590;2022-08-19T07:07:15;8.52;;;5.65;;
57810;SDS011;43640;47.550;7.590;2022-08-19T07:09:21;7.97;;;6.00;;
57810;SDS011;43640;47.550;7.590;2022-08-19T07:11:23;10.10;;;5.57;;
57810;SDS011;43640;47.550;7.590;2022-08-19T07:13:25;7.88;;;6.00;;
57810;SDS011;43640;47.550;7.590;2022-08-19T07:15:26;9.88;;;6.03;;
57810;SDS011;43640;47.550;7.590;2022-08-19T07:17:29;6.70;;;5.75;;
57810;SDS011;43640;47.550;7.590;2022-08-19T07:19:31;7.03;;;5.93;;
57810;SDS011;43640;47.550;7.590;2022-08-19T07:21:33;7.28;;;5.68;;
57810;SDS011;43640;47.550;7.590;2022-08-19T07:23:37;7.40;;;6.20;;
57810;SDS011;43640;47.550;7.590;2022-08-19T07:25:39;9.85;;;6.40;;
57810;SDS011;43640;47.550;7.590;2022-08-19T07:27:41;7.68;;;6.30;;
57810;SDS011;43640;47.550;7.590;2022-08-19T07:29:46;8.43;;;6.60;;
57810;SDS011;43640;47.550;7.590;2022-08-19T07:31:56;7.60;;;6.72;;
57810;SDS011;43640;47.550;7.590;2022-08-19T07:34:00;9.27;;;7.53;;
57810;SDS011;43640;47.550;7.590;2022-08-19T07:36:03;9.70;;;6.90;;
57810;SDS011;43640;47.550;7.590;2022-08-19T07:38:05;8.35;;;7.25;;
57810;SDS011;43640;47.550;7.590;2022-08-19T07:40:06;8.55;;;7.65;;
57810;SDS011;43640;47.550;7.590;2022-08-19T07:42:09;8.18;;;7.38;;
57810;SDS011;43640;47.550;7.590;2022-08-19T07:44:14;11.50;;;8.20;;
57810;SDS011;43640;47.550;7.590;2022-08-19T07:46:16;9.40;;;7.35;;
57810;SDS011;43640;47.550;7.590;2022-08-19T07:48:18;11.30;;;7.20;;
57810;SDS011;43640;47.550;7.590;2022-08-19T07:50:20;10.35;;;6.30;;
57810;SDS011;43640;47.550;7.590;2022-08-19T07:52:22;10.45;;;7.47;;
57810;SDS011;43640;47.550;7.590;2022-08-19T07:54:24;9.88;;;6.60;;
57810;SDS011;43640;47.550;7.590;2022-08-19T07:56:26;10.93;;;7.10;;
57810;SDS011;43640;47.550;7.590;2022-08-19T07:58:27;10.18;;;7.10;;
57810;SDS011;43640;47.550;7.590;2022-08-19T08:00:28;8.57;;;6.85;;
57810;SDS011;43640;47.550;7.590;2022-08-19T08:02:30;8.77;;;6.85;;
57810;SDS011;43640;47.550;7.590;2022-08-19T08:04:31;10.10;;;6.38;;
57810;SDS011;43640;47.550;7.590;2022-08-19T08:06:51;11.80;;;7.77;;
57810;SDS011;43640;47.550;7.590;2022-08-19T08:09:12;10.93;;;7.25;;
57810;SDS011;43640;47.550;7.590;2022-08-19T08:11:17;8.35;;;7.15;;
57810;SDS011;43640;47.550;7.590;2022-08-19T08:13:20;12.13;;;7.15;;
57810;SDS011;43640;47.550;7.590;2022-08-19T08:15:21;9.13;;;6.97;;
57810;SDS011;43640;47.550;7.590;2022-08-19T08:17:26;10.15;;;7.63;;
57810;SDS011;43640;47.550;7.590;2022-08-19T08:19:48;10.25;;;7.55;;
57810;SDS011;43640;47.550;7.590;2022-08-19T08:21:56;11.25;;;8.30;;
57810;SDS011;43640;47.550;7.590;2022-08-19T08:23:58;10.90;;;7.55;;
57810;SDS011;43640;47.550;7.590;2022-08-19T08:26:04;9.90;;;8.15;;
57810;SDS011;43640;47.550;7.590;2022-08-19T08:28:05;11.30;;;7.95;;
57810;SDS011;43640;47.550;7.590;2022-08-19T08:30:21;10.90;;;9.32;;
57810;SDS011;43640;47.550;7.590;2022-08-19T08:32:24;10.25;;;7.80;;
57810;SDS011;43640;47.550;7.590;2022-08-19T08:34:25;10.82;;;9.05;;
57810;SDS011;43640;47.550;7.590;2022-08-19T08:36:26;9.35;;;8.32;;
57810;SDS011;43640;47.550;7.590;2022-08-19T08:38:28;11.98;;;8.73;;
57810;SDS011;43640;47.550;7.590;2022-08-19T08:42:40;12.55;;;10.05;;
57810;SDS011;43640;47.550;7.590;2022-08-19T08:47:17;11.23;;;7.95;;
57810;SDS011;43640;47.550;7.590;2022-08-19T08:49:23;13.00;;;8.27;;
57810;SDS011;43640;47.550;7.590;2022-08-19T08:54:01;11.35;;;7.75;;
57810;SDS011;43640;47.550;7.590;2022-08-19T08:56:04;12.85;;;9.10;;
57810;SDS011;43640;47.550;7.590;2022-08-19T08:58:09;10.38;;;8.75;;
57810;SDS011;43640;47.550;7.590;2022-08-19T09:00:15;10.77;;;8.20;;
57810;SDS011;43640;47.550;7.590;2022-08-19T09:02:18;13.10;;;8.70;;
57810;SDS011;43640;47.550;7.590;2022-08-19T09:04:19;12.00;;;9.13;;
57810;SDS011;43640;47.550;7.590;2022-08-19T09:10:51;11.88;;;9.15;;
57810;SDS011;43640;47.550;7.590;2022-08-19T09:13:00;11.20;;;8.55;;
57810;SDS011;43640;47.550;7.590;2022-08-19T09:15:10;12.90;;;8.90;;
57810;SDS011;43640;47.550;7.590;2022-08-19T09:17:13;12.13;;;9.15;;
57810;SDS011;43640;47.550;7.590;2022-08-19T09:19:15;12.43;;;9.40;;
57810;SDS011;43640;47.550;7.590;2022-08-19T09:21:22;12.38;;;10.05;;
57810;SDS011;43640;47.550;7.590;2022-08-19T09:23:33;14.00;;;9.85;;
57810;SDS011;43640;47.550;7.590;2022-08-19T09:25:36;11.20;;;9.50;;
57810;SDS011;43640;47.550;7.590;2022-08-19T09:27:37;13.18;;;9.85;;
57810;SDS011;43640;47.550;7.590;2022-08-19T09:29:43;13.30;;;10.75;;
57810;SDS011;43640;47.550;7.590;2022-08-19T09:31:45;16.00;;;11.32;;
57810;SDS011;43640;47.550;7.590;2022-08-19T09:33:46;14.05;;;11.07;;
57810;SDS011;43640;47.550;7.590;2022-08-19T09:35:48;12.90;;;9.80;;
57810;SDS011;43640;47.550;7.590;2022-08-19T09:37:54;14.05;;;9.80;;
57810;SDS011;43640;47.550;7.590;2022-08-19T09:39:59;14.45;;;10.20;;
57810;SDS011;43640;47.550;7.590;2022-08-19T09:42:02;15.00;;;10.13;;
57810;SDS011;43640;47.550;7.590;2022-08-19T09:44:04;14.98;;;10.57;;
57810;SDS011;43640;47.550;7.590;2022-08-19T09:46:06;12.70;;;9.48;;
57810;SDS011;43640;47.550;7.590;2022-08-19T09:48:08;15.73;;;11.23;;
57810;SDS011;43640;47.550;7.590;2022-08-19T09:50:12;17.90;;;11.63;;
57810;SDS011;43640;47.550;7.590;2022-08-19T09:52:16;14.32;;;11.02;;
57810;SDS011;43640;47.550;7.590;2022-08-19T09:54:18;15.50;;;11.73;;
57810;SDS011;43640;47.550;7.590;2022-08-19T09:56:25;18.58;;;11.55;;
57810;SDS011;43640;47.550;7.590;2022-08-19T09:58:26;16.10;;;12.75;;
57810;SDS011;43640;47.550;7.590;2022-08-19T10:00:29;18.20;;;12.90;;
57810;SDS011;43640;47.550;7.590;2022-08-19T10:02:31;17.33;;;13.13;;
57810;SDS011;43640;47.550;7.590;2022-08-19T10:04:34;14.43;;;11.82;;
57810;SDS011;43640;47.550;7.590;2022-08-19T10:06:55;16.17;;;12.35;;
57810;SDS011;43640;47.550;7.590;2022-08-19T10:08:57;15.88;;;12.45;;
57810;SDS011;43640;47.550;7.590;2022-08-19T10:10:59;19.00;;;13.77;;
57810;SDS011;43640;47.550;7.590;2022-08-19T10:13:21;15.35;;;12.40;;
57810;SDS011;43640;47.550;7.590;2022-08-19T10:15:25;15.85;;;12.60;;
57810;SDS011;43640;47.550;7.590;2022-08-19T10:17:29;15.55;;;11.48;;
57810;SDS011;43640;47.550;7.590;2022-08-19T10:19:33;17.02;;;11.90;;
57810;SDS011;43640;47.550;7.590;2022-08-19T10:21:37;18.55;;;12.15;;
57810;SDS011;43640;47.550;7.590;2022-08-19T10:23:42;18.95;;;12.85;;
57810;SDS011;43640;47.550;7.590;2022-08-19T10:25:46;16.10;;;11.45;;
57810;SDS011;43640;47.550;7.590;2022-08-19T10:27:48;17.60;;;11.90;;
57810;SDS011;43640;47.550;7.590;2022-08-19T10:29:51;15.50;;;11.77;;
57810;SDS011;43640;47.550;7.590;2022-08-19T10:31:55;14.82;;;11.55;;
57810;SDS011;43640;47.550;7.590;2022-08-19T10:34:03;16.48;;;12.52;;
57810;SDS011;43640;47.550;7.590;2022-08-19T10:36:07;18.50;;;13.23;;
57810;SDS011;43640;47.550;7.590;2022-08-19T10:38:09;15.70;;;12.27;;
57810;SDS011;43640;47.550;7.590;2022-08-19T10:40:11;17.33;;;12.52;;
57810;SDS011;43640;47.550;7.590;2022-08-19T10:42:12;17.05;;;13.18;;
57810;SDS011;43640;47.550;7.590;2022-08-19T10:44:14;17.17;;;12.95;;
57810;SDS011;43640;47.550;7.590;2022-08-19T10:46:18;20.30;;;13.45;;
57810;SDS011;43640;47.550;7.590;2022-08-19T10:48:19;19.05;;;13.45;;
57810;SDS011;43640;47.550;7.590;2022-08-19T10:50:24;17.17;;;13.52;;
57810;SDS011;43640;47.550;7.590;2022-08-19T10:52:46;17.65;;;13.23;;
57810;SDS011;43640;47.550;7.590;2022-08-19T10:54:50;19.33;;;13.38;;
57810;SDS011;43640;47.550;7.590;2022-08-19T10:57:10;17.95;;;14.05;;
57810;SDS011;43640;47.550;7.590;2022-08-19T10:59:12;16.45;;;13.60;;
57810;SDS011;43640;47.550;7.590;2022-08-19T11:01:15;19.23;;;14.20;;
57810;SDS011;43640;47.550;7.590;2022-08-19T11:03:16;20.40;;;15.00;;
57810;SDS011;43640;47.550;7.590;2022-08-19T11:05:18;18.75;;;14.93;;
57810;SDS011;43640;47.550;7.590;2022-08-19T11:07:19;16.95;;;12.98;;
57810;SDS011;43640;47.550;7.590;2022-08-19T11:09:22;16.90;;;15.10;;
57810;SDS011;43640;47.550;7.590;2022-08-19T11:11:35;17.15;;;14.65;;
57810;SDS011;43640;47.550;7.590;2022-08-19T11:13:42;16.75;;;12.70;;
57810;SDS011;43640;47.550;7.590;2022-08-19T11:15:45;17.60;;;14.77;;
57810;SDS011;43640;47.550;7.590;2022-08-19T11:17:46;17.60;;;12.68;;
57810;SDS011;43640;47.550;7.590;2022-08-19T11:19:48;18.02;;;13.02;;
57810;SDS011;43640;47.550;7.590;2022-08-19T11:21:50;19.50;;;13.70;;
57810;SDS011;43640;47.550;7.590;2022-08-19T11:23:58;18.08;;;13.20;;
57810;SDS011;43640;47.550;7.590;2022-08-19T11:25:59;17.20;;;12.80;;
57810;SDS011;43640;47.550;7.590;2022-08-19T11:28:02;18.13;;;14.00;;
57810;SDS011;43640;47.550;7.590;2022-08-19T11:30:03;15.80;;;13.05;;
57810;SDS011;43640;47.550;7.590;2022-08-19T11:32:08;20.10;;;14.25;;
57810;SDS011;43640;47.550;7.590;2022-08-19T11:34:11;17.15;;;13.38;;
57810;SDS011;43640;47.550;7.590;2022-08-19T11:36:13;17.88;;;13.90;;
57810;SDS011;43640;47.550;7.590;2022-08-19T11:38:15;17.58;;;13.40;;
57810;SDS011;43640;47.550;7.590;2022-08-19T11:40:16;16.33;;;13.57;;
57810;SDS011;43640;47.550;7.590;2022-08-19T11:42:18;18.27;;;13.50;;
57810;SDS011;43640;47.550;7.590;2022-08-19T11:44:38;21.23;;;13.38;;
57810;SDS011;43640;47.550;7.590;2022-08-19T11:46:39;18.55;;;14.15;;
57810;SDS011;43640;47.550;7.590;2022-08-19T11:48:41;18.73;;;14.20;;
57810;SDS011;43640;47.550;7.590;2022-08-19T11:50:42;15.90;;;13.38;;
57810;SDS011;43640;47.550;7.590;2022-08-19T11:52:44;18.25;;;14.43;;
57810;SDS011;43640;47.550;7.590;2022-08-19T11:54:46;19.23;;;13.60;;
57810;SDS011;43640;47.550;7.590;2022-08-19T11:56:47;17.52;;;13.57;;
57810;SDS011;43640;47.550;7.590;2022-08-19T11:58:50;17.65;;;14.00;;
57810;SDS011;43640;47.550;7.590;2022-08-19T12:00:51;17.77;;;14.13;;
57810;SDS011;43640;47.550;7.590;2022-08-19T12:02:53;19.13;;;14.60;;
57810;SDS011;43640;47.550;7.590;2022-08-19T12:04:55;20.95;;;13.75;;
57810;SDS011;43640;47.550;7.590;2022-08-19T12:06:57;17.67;;;13.30;;
57810;SDS011;43640;47.550;7.590;2022-08-19T12:08:59;19.00;;;13.75;;
57810;SDS011;43640;47.550;7.590;2022-08-19T12:11:01;17.35;;;14.35;;
57810;SDS011;43640;47.550;7.590;2022-08-19T12:13:02;18.75;;;13.70;;
57810;SDS011;43640;47.550;7.590;2022-08-19T12:15:04;17.58;;;13.75;;
57810;SDS011;43640;47.550;7.590;2022-08-19T12:17:05;17.33;;;14.10;;
57810;SDS011;43640;47.550;7.590;2022-08-19T12:19:09;18.23;;;15.13;;
57810;SDS011;43640;47.550;7.590;2022-08-19T12:21:11;18.98;;;14.18;;
57810;SDS011;43640;47.550;7.590;2022-08-19T12:23:14;16.15;;;13.82;;
57810;SDS011;43640;47.550;7.590;2022-08-19T12:25:16;16.95;;;14.05;;
57810;SDS011;43640;47.550;7.590;2022-08-19T12:27:21;17.83;;;13.68;;
57810;SDS011;43640;47.550;7.590;2022-08-19T12:29:41;18.10;;;14.85;;
57810;SDS011;43640;47.550;7.590;2022-08-19T12:31:43;18.42;;;14.88;;
57810;SDS011;43640;47.550;7.590;2022-08-19T12:33:46;18.30;;;14.25;;